Time;durP1;ratioP1;P1;durP2;ratioP2;P2;SDS_P1;SDS_P2;PMS_P1;PMS_P2;Temp;Humidity;BMP_temperature;BMP_pressure;BME280_temperature;BME280_humidity;BME280_pressure;Samples;Min_cycle;Max_cycle;Signal;HPM_P1;HPM_P2
2024/03/20 00:01:51;;;;;;;;;;;;;;;;;;5081779;28;19926;-85
2024/03/20 00:04:18;;;;;;;;;;;;;;;;;;5080934;28;19932;-84
2024/03/20 00:06:45;;;;;;;;;;;;;;;;;;5080318;28;19930;-83
2024/03/20 00:09:13;;;;;;;;;;;;;;;;;;5080286;28;19921;-84
2024/03/20 00:11:40;;;;;;;;;;;;;;;;;;5080178;28;20292;-85
2024/03/20 00:14:07;;;;;;;;;;;;;;;;;;5081369;28;19956;-85
2024/03/20 00:16:34;;;;;;;;;;;;;;;;;;5080665;28;19943;-84
2024/03/20 00:19:01;;;;;;;;;;;;;;;;;;5080203;28;20021;-84
2024/03/20 00:21:30;;;;;;;;;;;;;;;;;;5080174;28;20413;-83
2024/03/20 00:23:57;;;;;;;;;;;;;;;;;;5079721;28;19947;-82
2024/03/20 00:26:24;;;;;;;;;;;;;;;;;;5077645;28;19920;-85
2024/03/20 00:28:51;;;;;;;;;;;;;;;;;;5078568;28;19927;-84
2024/03/20 00:31:18;;;;;;;;;;;;;;;;;;5077655;28;20015;-85
2024/03/20 00:33:45;;;;;;;;;;;;;;;;;;5077628;28;19921;-82
2024/03/20 00:36:12;;;;;;;;;;;;;;;;;;5077682;28;19925;-84
2024/03/20 00:38:39;;;;;;;;;;;;;;;;;;5078003;28;19920;-83
2024/03/20 00:41:06;;;;;;;;;;;;;;;;;;5078171;28;20374;-83
2024/03/20 00:43:35;;;;;;;;;;;;;;;;;;5077965;28;19971;-82
2024/03/20 00:46:03;;;;;;;;;;;;;;;;;;5077031;28;19924;-86
2024/03/20 00:48:29;;;;;;;;;;;;;;;;;;5077446;28;19924;-83
2024/03/20 00:50:56;;;;;;;;;;;;;;;;;;5076695;28;19940;-83
2024/03/20 00:53:23;;;;;;;;;;;;;;;;;;5074071;28;20406;-84
2024/03/20 00:55:50;;;;;;;;;;;;;;;;;;5077854;28;19921;-83
2024/03/20 00:58:17;;;;;;;;;;;;;;;;;;5076225;28;19946;-84
2024/03/20 01:00:44;;;;;;;;;;;;;;;;;;5077887;28;20008;-84
2024/03/20 01:03:11;;;;;;;;;;;;;;;;;;5077211;28;19920;-82
2024/03/20 01:05:38;;;;;;;;;;;;;;;;;;5077407;28;19931;-83
2024/03/20 01:08:05;;;;;;;;;;;;;;;;;;5077368;28;20420;-84
2024/03/20 01:10:32;;;;;;;;;;;;;;;;;;5077555;28;19920;-83
2024/03/20 01:12:59;;;;;;;;;;;;;;;;;;5076743;28;19916;-84
2024/03/20 01:15:27;;;;;;;;;;;;;;;;;;5076807;28;19923;-85
2024/03/20 01:17:54;;;;;;;;;;;;;;;;;;5076572;28;20375;-84
2024/03/20 01:20:21;;;;;;;;;;;;;;;;;;5077005;28;19933;-82
2024/03/20 01:22:48;;;;;;;;;;;;;;;;;;5077116;28;20295;-83
2024/03/20 01:25:15;;;;;;;;;;;;;;;;;;5076186;28;19916;-83
2024/03/20 01:27:41;;;;;;;;;;;;;;;;;;5077092;28;19920;-85
2024/03/20 01:30:08;;;;;;;;;;;;;;;;;;5068713;28;19921;-82
2024/03/20 01:32:35;;;;;;;;;;;;;;;;;;5076254;28;20368;-82
2024/03/20 01:35:02;;;;;;;;;;;;;;;;;;5076204;28;20479;-83
2024/03/20 01:37:29;;;;;;;;;;;;;;;;;;5075918;28;19924;-83
2024/03/20 01:39:56;;;;;;;;;;;;;;;;;;5076685;28;19966;-83
2024/03/20 01:42:23;;;;;;;;;;;;;;;;;;5075768;28;19927;-86
2024/03/20 01:44:50;;;;;;;;;;;;;;;;;;5076315;28;20008;-85
2024/03/20 01:47:17;;;;;;;;;;;;;;;;;;5075986;28;20023;-84
2024/03/20 01:49:44;;;;;;;;;;;;;;;;;;5076651;28;20391;-84
2024/03/20 01:52:11;;;;;;;;;;;;;;;;;;5077012;28;20021;-83
2024/03/20 01:54:38;;;;;;;;;;;;;;;;;;5078048;28;19931;-84
2024/03/20 01:57:05;;;;;;;;;;;;;;;;;;5076876;28;19920;-84
2024/03/20 01:59:34;;;;;;;;;;;;;;;;;;5076520;28;20364;-84
2024/03/20 02:02:02;;;;;;;;;;;;;;;;;;5076018;28;19921;-85
2024/03/20 02:04:29;;;;;;;;;;;;;;;;;;5076097;28;20398;-84
2024/03/20 02:06:56;;;;;;;;;;;;;;;;;;5075768;28;20436;-83
2024/03/20 02:09:23;;;;;;;;;;;;;;;;;;5076208;28;19927;-86
2024/03/20 02:11:50;;;;;;;;;;;;;;;;;;5075812;28;19943;-86
2024/03/20 02:14:17;;;;;;;;;;;;;;;;;;5076132;28;19920;-86
2024/03/20 02:16:44;;;;;;;;;;;;;;;;;;5076986;28;19927;-85
2024/03/20 02:19:11;;;;;;;;;;;;;;;;;;5077645;28;19920;-84
2024/03/20 02:21:38;;;;;;;;;;;;;;;;;;5077678;28;20290;-84
2024/03/20 02:24:08;;;;;;;;;;;;;;;;;;5076806;28;19920;-83
2024/03/20 02:26:35;;;;;;;;;;;;;;;;;;5076145;28;20011;-84
2024/03/20 02:29:03;;;;;;;;;;;;;;;;;;5076435;28;19921;-84
2024/03/20 02:31:29;;;;;;;;;;;;;;;;;;5076039;28;20327;-83
2024/03/20 02:33:56;;;;;;;;;;;;;;;;;;5075977;28;19920;-83
2024/03/20 02:36:23;;;;;;;;;;;;;;;;;;5075676;28;20015;-85
2024/03/20 02:38:50;;;;;;;;;;;;;;;;;;5075641;28;19925;-85
2024/03/20 02:41:18;;;;;;;;;;;;;;;;;;5076233;28;19920;-85
2024/03/20 02:43:45;;;;;;;;;;;;;;;;;;5075775;28;19920;-81
2024/03/20 02:46:12;;;;;;;;;;;;;;;;;;5074779;28;20018;-83
2024/03/20 02:48:39;;;;;;;;;;;;;;;;;;5070365;28;20460;-84
2024/03/20 02:51:06;;;;;;;;;;;;;;;;;;5076266;28;20300;-85
2024/03/20 02:53:33;;;;;;;;;;;;;;;;;;5076731;28;20010;-84
2024/03/20 02:56:00;;;;;;;;;;;;;;;;;;5076122;28;19921;-84
2024/03/20 02:58:27;;;;;;;;;;;;;;;;;;5067252;28;19920;-84
2024/03/20 03:00:54;;;;;;;;;;;;;;;;;;5075775;28;20403;-86
2024/03/20 03:03:21;;;;;;;;;;;;;;;;;;5076332;28;19929;-85
2024/03/20 03:05:48;;;;;;;;;;;;;;;;;;5076120;28;19920;-86
2024/03/20 03:08:15;;;;;;;;;;;;;;;;;;5076474;28;19926;-84
2024/03/20 03:10:41;;;;;;;;;;;;;;;;;;5077974;28;19956;-84
2024/03/20 03:13:08;;;;;;;;;;;;;;;;;;5077035;28;19931;-84
2024/03/20 03:15:35;;;;;;;;;;;;;;;;;;5077328;28;19920;-85
2024/03/20 03:18:02;;;;;;;;;;;;;;;;;;5072042;28;20003;-86
2024/03/20 03:20:29;;;;;;;;;;;;;;;;;;5081616;28;20307;-85
2024/03/20 03:22:56;;;;;;;;;;;;;;;;;;5081632;28;20423;-85
2024/03/20 03:25:23;;;;;;;;;;;;;;;;;;5081171;28;20192;-84
2024/03/20 03:27:50;;;;;;;;;;;;;;;;;;5076225;28;20003;-86
2024/03/20 03:30:17;;;;;;;;;;;;;;;;;;5078793;28;20011;-85
2024/03/20 03:32:44;;;;;;;;;;;;;;;;;;5080185;28;20006;-85
2024/03/20 03:35:11;;;;;;;;;;;;;;;;;;5081949;28;19991;-85
2024/03/20 03:37:38;;;;;;;;;;;;;;;;;;5080810;28;20375;-86
2024/03/20 03:40:10;;;;;;;;;;;;;;;;;;5080882;28;19920;-86
2024/03/20 03:42:37;;;;;;;;;;;;;;;;;;5081989;28;19974;-87
2024/03/20 03:45:04;;;;;;;;;;;;;;;;;;5081720;28;19943;-87
2024/03/20 03:47:31;;;;;;;;;;;;;;;;;;5082106;28;19920;-86
2024/03/20 03:49:58;;;;;;;;;;;;;;;;;;5082339;28;20012;-86
2024/03/20 03:52:25;;;;;;;;;;;;;;;;;;5082505;28;19995;-87
2024/03/20 03:54:52;;;;;;;;;;;;;;;;;;5086394;28;19963;-86
2024/03/20 03:57:19;;;;;;;;;;;;;;;;;;5099000;28;19950;-86
2024/03/20 03:59:46;;;;;;;;;;;;;;;;;;5096629;28;19920;-80
2024/03/20 04:02:13;;;;;;;;;;;;;;;;;;5099362;28;19932;-87
2024/03/20 04:04:40;;;;;;;;;;;;;;;;;;5100254;28;19924;-86
2024/03/20 04:07:07;;;;;;;;;;;;;;;;;;5099316;28;19952;-86
2024/03/20 04:09:34;;;;;;;;;;;;;;;;;;5099603;28;19950;-85
2024/03/20 04:12:01;;;;;;;;;;;;;;;;;;5089901;28;19920;-85
2024/03/20 04:14:28;;;;;;;;;;;;;;;;;;5078843;28;19921;-84
2024/03/20 04:16:55;;;;;;;;;;;;;;;;;;5077677;28;19920;-84
2024/03/20 04:19:22;;;;;;;;;;;;;;;;;;5076750;28;19921;-83
2024/03/20 04:21:49;;;;;;;;;;;;;;;;;;5076948;28;19935;-84
2024/03/20 04:24:16;;;;;;;;;;;;;;;;;;5077265;28;20399;-85
2024/03/20 04:26:43;;;;;;;;;;;;;;;;;;5076636;28;20373;-84
2024/03/20 04:29:11;;;;;;;;;;;;;;;;;;5076541;28;19955;-84
2024/03/20 04:31:38;;;;;;;;;;;;;;;;;;5076789;28;20367;-85
2024/03/20 04:34:05;;;;;;;;;;;;;;;;;;5076139;28;20402;-84
2024/03/20 04:36:32;;;;;;;;;;;;;;;;;;5076449;28;20006;-84
2024/03/20 04:39:02;;;;;;;;;;;;;;;;;;5076364;28;19927;-86
2024/03/20 04:41:29;;;;;;;;;;;;;;;;;;5075685;28;19924;-84
2024/03/20 04:43:56;;;;;;;;;;;;;;;;;;5076350;28;19983;-84
2024/03/20 04:46:23;;;;;;;;;;;;;;;;;;5074193;28;19927;-85
2024/03/20 04:48:50;;;;;;;;;;;;;;;;;;5071552;28;20323;-86
2024/03/20 04:51:17;;;;;;;;;;;;;;;;;;5075496;28;19927;-85
2024/03/20 04:53:44;;;;;;;;;;;;;;;;;;5076313;28;20007;-84
2024/03/20 04:56:11;;;;;;;;;;;;;;;;;;5075817;28;19920;-84
2024/03/20 04:58:38;;;;;;;;;;;;;;;;;;5075534;28;19975;-84
2024/03/20 05:01:05;;;;;;;;;;;;;;;;;;5075946;28;19950;-85
2024/03/20 05:03:32;;;;;;;;;;;;;;;;;;5074901;28;20398;-84
2024/03/20 05:06:01;;;;;;;;;;;;;;;;;;5075618;28;20397;-85
2024/03/20 05:08:28;;;;;;;;;;;;;;;;;;5070599;28;19920;-84
2024/03/20 05:10:55;;;;;;;;;;;;;;;;;;5072450;28;20257;-84
2024/03/20 05:13:22;;;;;;;;;;;;;;;;;;5075996;28;19920;-84
2024/03/20 05:15:49;;;;;;;;;;;;;;;;;;5075410;28;20125;-85
2024/03/20 05:18:16;;;;;;;;;;;;;;;;;;5073599;28;19924;-84
2024/03/20 05:20:43;;;;;;;;;;;;;;;;;;5073749;28;19959;-84
2024/03/20 05:23:10;;;;;;;;;;;;;;;;;;5075558;28;19966;-83
2024/03/20 05:25:38;;;;;;;;;;;;;;;;;;5074834;28;19967;-84
2024/03/20 05:28:04;;;;;;;;;;;;;;;;;;5075148;28;19970;-85
2024/03/20 05:30:31;;;;;;;;;;;;;;;;;;5075763;28;19916;-85
2024/03/20 05:32:57;;;;;;;;;;;;;;;;;;5070524;28;19927;-86
2024/03/20 05:35:25;;;;;;;;;;;;;;;;;;5065226;28;20347;-85
2024/03/20 05:37:51;;;;;;;;;;;;;;;;;;5074180;28;20053;-86
2024/03/20 05:40:18;;;;;;;;;;;;;;;;;;5074539;28;20434;-86
2024/03/20 05:42:44;;;;;;;;;;;;;;;;;;5076312;28;20324;-83
2024/03/20 05:45:10;;;;;;;;;;;;;;;;;;5075106;28;19920;-83
2024/03/20 05:47:36;;;;;;;;;;;;;;;;;;5078806;28;19984;-83
2024/03/20 05:50:03;;;;;;;;;;;;;;;;;;5078560;28;20415;-82
2024/03/20 05:52:29;;;;;;;;;;;;;;;;;;5075734;28;19999;-84
2024/03/20 05:54:57;;;;;;;;;;;;;;;;;;5078731;28;19963;-82
2024/03/20 05:57:23;;;;;;;;;;;;;;;;;;5074702;28;19943;-84
2024/03/20 05:59:50;;;;;;;;;;;;;;;;;;5074991;28;19920;-83
2024/03/20 06:02:16;;;;;;;;;;;;;;;;;;5074719;28;19943;-85
2024/03/20 06:04:43;;;;;;;;;;;;;;;;;;5070376;28;19920;-85
2024/03/20 06:07:09;;;;;;;;;;;;;;;;;;5072180;28;19927;-87
2024/03/20 06:09:36;;;;;;;;;;;;;;;;;;5071873;28;20011;-84
2024/03/20 06:12:04;;;;;;;;;;;;;;;;;;5071133;28;19921;-87
2024/03/20 06:14:32;;;;;;;;;;;;;;;;;;5075357;28;19916;-82
2024/03/20 06:16:58;;;;;;;;;;;;;;;;;;5074660;28;19924;-83
2024/03/20 06:19:25;;;;;;;;;;;;;;;;;;5074775;28;20675;-85
2024/03/20 06:21:51;;;;;;;;;;;;;;;;;;5074445;28;20300;-85
2024/03/20 06:24:18;;;;;;;;;;;;;;;;;;5077093;28;19959;-83
2024/03/20 06:26:44;;;;;;;;;;;;;;;;;;5073898;28;20353;-80
2024/03/20 06:29:11;;;;;;;;;;;;;;;;;;5076045;28;19940;-81
2024/03/20 06:31:37;;;;;;;;;;;;;;;;;;5079986;28;20341;-81
2024/03/20 06:34:04;;;;;;;;;;;;;;;;;;5079306;28;19917;-84
2024/03/20 06:36:30;;;;;;;;;;;;;;;;;;5079859;28;19925;-81
2024/03/20 06:38:57;;;;;;;;;;;;;;;;;;5078386;28;19923;-80
2024/03/20 06:41:23;;;;;;;;;;;;;;;;;;5081020;28;19971;-81
2024/03/20 06:43:52;;;;;;;;;;;;;;;;;;5082148;28;20469;-80
2024/03/20 06:46:19;;;;;;;;;;;;;;;;;;5073130;28;19974;-81
2024/03/20 06:48:47;;;;;;;;;;;;;;;;;;5082213;28;19916;-80
2024/03/20 06:51:15;;;;;;;;;;;;;;;;;;5080109;28;19927;-84
2024/03/20 06:53:42;;;;;;;;;;;;;;;;;;5083938;28;19920;-81
2024/03/20 06:56:10;;;;;;;;;;;;;;;;;;5084218;28;20014;-79
2024/03/20 06:58:37;;;;;;;;;;;;;;;;;;5082637;28;19942;-82
2024/03/20 07:01:03;;;;;;;;;;;;;;;;;;5079422;28;19988;-83
2024/03/20 07:03:30;;;;;;;;;;;;;;;;;;5078706;28;19963;-84
2024/03/20 07:05:56;;;;;;;;;;;;;;;;;;5078460;28;19931;-85
2024/03/20 07:08:24;;;;;;;;;;;;;;;;;;5078145;28;20007;-85
2024/03/20 07:10:50;;;;;;;;;;;;;;;;;;5077685;28;19927;-85
2024/03/20 07:13:17;;;;;;;;;;;;;;;;;;5078452;28;19916;-87
2024/03/20 07:15:43;;;;;;;;;;;;;;;;;;5079598;28;19920;-82
2024/03/20 07:18:10;;;;;;;;;;;;;;;;;;5079053;28;19966;-84
2024/03/20 07:20:36;;;;;;;;;;;;;;;;;;5081548;28;19984;-84
2024/03/20 07:23:03;;;;;;;;;;;;;;;;;;5083372;28;19951;-83
2024/03/20 07:25:30;;;;;;;;;;;;;;;;;;5080654;28;19925;-85
2024/03/20 07:27:57;;;;;;;;;;;;;;;;;;5083417;28;19953;-84
2024/03/20 07:30:23;;;;;;;;;;;;;;;;;;5088390;28;20026;-83
2024/03/20 07:32:50;;;;;;;;;;;;;;;;;;5086697;28;20026;-83
2024/03/20 07:35:16;;;;;;;;;;;;;;;;;;5080994;28;20007;-83
2024/03/20 07:37:43;;;;;;;;;;;;;;;;;;5085272;28;19924;-84
2024/03/20 07:40:09;;;;;;;;;;;;;;;;;;5081461;28;19935;-84
2024/03/20 07:42:39;;;;;;;;;;;;;;;;;;5085085;28;19934;-85
2024/03/20 07:45:04;;;;;;;;;;;;;;;;;;5084903;28;19927;-83
2024/03/20 07:47:31;;;;;;;;;;;;;;;;;;5084830;28;20006;-83
2024/03/20 07:49:57;;;;;;;;;;;;;;;;;;5086586;28;19988;-83
2024/03/20 07:52:24;;;;;;;;;;;;;;;;;;5087400;28;19924;-85
2024/03/20 07:54:50;;;;;;;;;;;;;;;;;;5089481;28;19920;-84
2024/03/20 07:57:17;;;;;;;;;;;;;;;;;;5090257;28;20338;-84
2024/03/20 07:59:43;;;;;;;;;;;;;;;;;;5089848;28;19922;-83
2024/03/20 08:02:10;;;;;;;;;;;;;;;;;;5087203;28;19917;-82
2024/03/20 08:04:38;;;;;;;;;;;;;;;;;;5083377;28;19980;-86
2024/03/20 08:07:06;;;;;;;;;;;;;;;;;;5081206;28;19927;-86
2024/03/20 08:09:32;;;;;;;;;;;;;;;;;;5086100;28;19920;-86
2024/03/20 08:11:59;;;;;;;;;;;;;;;;;;5086494;28;19947;-85
2024/03/20 08:14:25;;;;;;;;;;;;;;;;;;5085883;28;19967;-85
2024/03/20 08:16:53;;;;;;;;;;;;;;;;;;5083893;28;20529;-84
2024/03/20 08:19:18;;;;;;;;;;;;;;;;;;5084432;28;19933;-84
2024/03/20 08:21:46;;;;;;;;;;;;;;;;;;5085249;28;19979;-80
2024/03/20 08:24:12;;;;;;;;;;;;;;;;;;5087355;28;20435;-86
2024/03/20 08:26:41;;;;;;;;;;;;;;;;;;5084012;28;19916;-87
2024/03/20 08:29:08;;;;;;;;;;;;;;;;;;5082646;28;20343;-85
2024/03/20 08:31:34;;;;;;;;;;;;;;;;;;5086434;28;19939;-86
2024/03/20 08:34:00;;;;;;;;;;;;;;;;;;5084364;28;20011;-83
2024/03/20 08:36:27;;;;;;;;;;;;;;;;;;5082119;28;19988;-85
2024/03/20 08:38:53;;;;;;;;;;;;;;;;;;5085313;28;19959;-86
2024/03/20 08:41:20;;;;;;;;;;;;;;;;;;5081726;28;20126;-82
2024/03/20 08:43:48;;;;;;;;;;;;;;;;;;5077199;28;19920;-85
2024/03/20 08:46:15;;;;;;;;;;;;;;;;;;5079215;28;20011;-83
2024/03/20 08:48:41;;;;;;;;;;;;;;;;;;5082985;28;19953;-83
2024/03/20 08:51:09;;;;;;;;;;;;;;;;;;5083895;28;19954;-83
2024/03/20 08:53:35;;;;;;;;;;;;;;;;;;5084223;28;19971;-84
2024/03/20 08:56:02;;;;;;;;;;;;;;;;;;5085703;28;19950;-83
2024/03/20 08:58:28;;;;;;;;;;;;;;;;;;5083746;28;20033;-84
2024/03/20 09:00:55;;;;;;;;;;;;;;;;;;5081933;28;19920;-84
2024/03/20 09:03:21;;;;;;;;;;;;;;;;;;5081233;28;19920;-83
2024/03/20 09:05:48;;;;;;;;;;;;;;;;;;5088139;28;20021;-83
2024/03/20 09:08:14;;;;;;;;;;;;;;;;;;5085687;28;20467;-82
2024/03/20 09:10:41;;;;;;;;;;;;;;;;;;5084357;28;19967;-83
2024/03/20 09:13:07;;;;;;;;;;;;;;;;;;5080977;28;19999;-83
2024/03/20 09:15:34;;;;;;;;;;;;;;;;;;5082524;28;19927;-83
2024/03/20 09:18:00;;;;;;;;;;;;;;;;;;5082699;28;20085;-82
2024/03/20 09:20:30;;;;;;;;;;;;;;;;;;5074690;28;19958;-86
2024/03/20 09:22:56;;;;;;;;;;;;;;;;;;5080086;28;20009;-86
2024/03/20 09:25:23;;;;;;;;;;;;;;;;;;5084660;28;19975;-86
2024/03/20 09:27:49;;;;;;;;;;;;;;;;;;5084519;28;19996;-83
2024/03/20 09:30:16;;;;;;;;;;;;;;;;;;5084675;28;19964;-85
2024/03/20 09:32:42;;;;;;;;;;;;;;;;;;5084694;28;20030;-82
2024/03/20 09:35:09;;;;;;;;;;;;;;;;;;5085635;28;19964;-80
2024/03/20 09:37:35;;;;;;;;;;;;;;;;;;5079844;28;20429;-84
2024/03/20 09:40:06;;;;;;;;;;;;;;;;;;5085519;28;19968;-85
2024/03/20 09:42:33;;;;;;;;;;;;;;;;;;5083754;28;19972;-83
2024/03/20 09:44:59;;;;;;;;;;;;;;;;;;5083405;28;19955;-83
2024/03/20 09:47:26;;;;;;;;;;;;;;;;;;5084083;28;19992;-81
2024/03/20 09:49:53;;;;;;;;;;;;;;;;;;5085536;28;19976;-82
2024/03/20 09:52:20;;;;;;;;;;;;;;;;;;5084038;28;20015;-84
2024/03/20 09:54:47;;;;;;;;;;;;;;;;;;5085566;28;19936;-82
2024/03/20 09:57:15;;;;;;;;;;;;;;;;;;5080447;28;19970;-81
2024/03/20 09:59:47;;;;;;;;;;;;;;;;;;5081331;28;20343;-85
2024/03/20 10:02:15;;;;;;;;;;;;;;;;;;5079903;28;19927;-82
2024/03/20 10:04:46;;;;;;;;;;;;;;;;;;5086204;28;19943;-81
2024/03/20 10:07:12;;;;;;;;;;;;;;;;;;5089431;28;19920;-83
2024/03/20 10:09:40;;;;;;;;;;;;;;;;;;5085894;28;20007;-83
2024/03/20 10:12:06;;;;;;;;;;;;;;;;;;5084268;28;19943;-82
2024/03/20 10:14:34;;;;;;;;;;;;;;;;;;5084551;28;19916;-83
2024/03/20 10:17:00;;;;;;;;;;;;;;;;;;5083445;28;20282;-83
2024/03/20 10:19:27;;;;;;;;;;;;;;;;;;5083499;28;19955;-84
2024/03/20 10:21:53;;;;;;;;;;;;;;;;;;5085377;28;19974;-84
2024/03/20 10:24:21;;;;;;;;;;;;;;;;;;5085001;28;20334;-82
2024/03/20 10:26:48;;;;;;;;;;;;;;;;;;5084177;28;19927;-83
2024/03/20 10:29:15;;;;;;;;;;;;;;;;;;5083339;28;20328;-83
2024/03/20 10:31:43;;;;;;;;;;;;;;;;;;5084680;28;20035;-83
2024/03/20 10:34:10;;;;;;;;;;;;;;;;;;5083343;28;20407;-83
2024/03/20 10:36:36;;;;;;;;;;;;;;;;;;5082552;28;19964;-82
2024/03/20 10:39:04;;;;;;;;;;;;;;;;;;5083011;28;19916;-82
2024/03/20 10:41:30;;;;;;;;;;;;;;;;;;5083450;28;20404;-82
2024/03/20 10:44:00;;;;;;;;;;;;;;;;;;5082942;28;19916;-83
2024/03/20 10:46:26;;;;;;;;;;;;;;;;;;5073206;28;20023;-82
2024/03/20 10:48:55;;;;;;;;;;;;;;;;;;5080245;28;19959;-81
2024/03/20 10:51:21;;;;;;;;;;;;;;;;;;5083349;28;19934;-81
2024/03/20 10:53:48;;;;;;;;;;;;;;;;;;5085539;28;19916;-83
2024/03/20 10:56:14;;;;;;;;;;;;;;;;;;5083449;28;19964;-82
2024/03/20 10:58:41;;;;;;;;;;;;;;;;;;5083437;28;19923;-81
2024/03/20 11:01:08;;;;;;;;;;;;;;;;;;5082727;28;19927;-82
2024/03/20 11:03:35;;;;;;;;;;;;;;;;;;5082708;28;19917;-82
2024/03/20 11:06:01;;;;;;;;;;;;;;;;;;5082234;28;20031;-82
2024/03/20 11:08:28;;;;;;;;;;;;;;;;;;5081235;28;19916;-83
2024/03/20 11:10:54;;;;;;;;;;;;;;;;;;5082664;28;19927;-84
2024/03/20 11:13:21;;;;;;;;;;;;;;;;;;5082922;28;19956;-80
2024/03/20 11:15:46;;;;;;;;;;;;;;;;;;5081828;28;19920;-79
2024/03/20 11:18:13;;;;;;;;;;;;;;;;;;5083226;28;19938;-82
2024/03/20 11:20:41;;;;;;;;;;;;;;;;;;5083258;28;19991;-82
2024/03/20 11:23:08;;;;;;;;;;;;;;;;;;5083155;28;19916;-81
2024/03/20 11:25:34;;;;;;;;;;;;;;;;;;5083338;28;19929;-81
2024/03/20 11:28:01;;;;;;;;;;;;;;;;;;5082212;28;19958;-81
2024/03/20 11:30:26;;;;;;;;;;;;;;;;;;5083059;28;19951;-83
2024/03/20 11:32:53;;;;;;;;;;;;;;;;;;5082862;28;19916;-83
2024/03/20 11:35:27;;;;;;;;;;;;;;;;;;5083295;28;20003;-78
2024/03/20 11:37:54;;;;;;;;;;;;;;;;;;5083860;28;19999;-80
2024/03/20 11:40:20;;;;;;;;;;;;;;;;;;5087027;28;19991;-80
2024/03/20 11:42:50;;;;;;;;;;;;;;;;;;5086928;28;19923;-81
2024/03/20 11:45:16;;;;;;;;;;;;;;;;;;5086666;28;20277;-82
2024/03/20 11:47:43;;;;;;;;;;;;;;;;;;5085297;28;19962;-82
2024/03/20 11:50:09;;;;;;;;;;;;;;;;;;5085415;28;19947;-82
2024/03/20 11:52:36;;;;;;;;;;;;;;;;;;5086392;28;19916;-82
2024/03/20 11:55:08;;;;;;;;;;;;;;;;;;5085896;28;19967;-83
2024/03/20 11:57:35;;;;;;;;;;;;;;;;;;5084757;28;20388;-82
2024/03/20 12:00:02;;;;;;;;;;;;;;;;;;5085922;28;20441;-82
2024/03/20 12:02:32;;;;;;;;;;;;;;;;;;5086280;28;19916;-82
2024/03/20 12:04:58;;;;;;;;;;;;;;;;;;5085356;28;19984;-82
2024/03/20 12:07:25;;;;;;;;;;;;;;;;;;5085793;28;19928;-83
2024/03/20 12:09:51;;;;;;;;;;;;;;;;;;5086250;28;19951;-84
2024/03/20 12:12:18;;;;;;;;;;;;;;;;;;5085903;28;20305;-81
2024/03/20 12:14:45;;;;;;;;;;;;;;;;;;5084623;28;19920;-79
2024/03/20 12:17:22;;;;;;;;;;;;;;;;;;5084275;28;19916;-83
2024/03/20 12:19:48;;;;;;;;;;;;;;;;;;5086013;28;19963;-83
2024/03/20 12:22:15;;;;;;;;;;;;;;;;;;5087019;28;19924;-82
2024/03/20 12:24:41;;;;;;;;;;;;;;;;;;5086439;28;20384;-83
2024/03/20 12:27:08;;;;;;;;;;;;;;;;;;5084221;28;19966;-82
2024/03/20 12:29:34;;;;;;;;;;;;;;;;;;5085116;28;20296;-80
2024/03/20 12:32:00;;;;;;;;;;;;;;;;;;5085922;28;19920;-84
2024/03/20 12:34:26;;;;;;;;;;;;;;;;;;5080967;28;19974;-85
2024/03/20 12:36:54;;;;;;;;;;;;;;;;;;5083200;28;20320;-85
2024/03/20 12:39:20;;;;;;;;;;;;;;;;;;5083709;28;19959;-82
2024/03/20 12:41:47;;;;;;;;;;;;;;;;;;5089381;28;19916;-82
2024/03/20 12:44:14;;;;;;;;;;;;;;;;;;5088461;28;19926;-85
2024/03/20 12:46:42;;;;;;;;;;;;;;;;;;5088693;28;19928;-84
2024/03/20 12:49:08;;;;;;;;;;;;;;;;;;5087972;28;19954;-80
2024/03/20 12:51:34;;;;;;;;;;;;;;;;;;5089043;28;19916;-82
2024/03/20 12:54:00;;;;;;;;;;;;;;;;;;5088506;28;20000;-84
2024/03/20 12:56:27;;;;;;;;;;;;;;;;;;5086112;28;19924;-84
2024/03/20 12:58:56;;;;;;;;;;;;;;;;;;5086114;28;19928;-84
2024/03/20 13:01:23;;;;;;;;;;;;;;;;;;5083864;28;19916;-84
2024/03/20 13:03:49;;;;;;;;;;;;;;;;;;5085143;28;20002;-85
2024/03/20 13:06:15;;;;;;;;;;;;;;;;;;5084187;28;19921;-85
2024/03/20 13:08:42;;;;;;;;;;;;;;;;;;5084047;28;19924;-85
2024/03/20 13:11:09;;;;;;;;;;;;;;;;;;5082827;28;19916;-83
2024/03/20 13:13:35;;;;;;;;;;;;;;;;;;5083594;28;19999;-83
2024/03/20 13:16:04;;;;;;;;;;;;;;;;;;5083290;28;19923;-84
2024/03/20 13:18:33;;;;;;;;;;;;;;;;;;5084007;28;19920;-86
2024/03/20 13:20:59;;;;;;;;;;;;;;;;;;5083533;28;19924;-84
2024/03/20 13:23:28;;;;;;;;;;;;;;;;;;5083367;28;19920;-85
2024/03/20 13:25:55;;;;;;;;;;;;;;;;;;5083052;28;19976;-85
2024/03/20 13:28:20;;;;;;;;;;;;;;;;;;5081580;28;19987;-83
2024/03/20 13:30:49;;;;;;;;;;;;;;;;;;5082309;28;19917;-85
2024/03/20 13:33:15;;;;;;;;;;;;;;;;;;5083148;28;19927;-85
2024/03/20 13:35:42;;;;;;;;;;;;;;;;;;5083541;28;19917;-85
2024/03/20 13:38:13;;;;;;;;;;;;;;;;;;5082801;28;19928;-83
2024/03/20 13:40:42;;;;;;;;;;;;;;;;;;5082723;28;20307;-84
2024/03/20 13:43:28;;;;;;;;;;;;;;;;;;5083192;28;19920;-83
2024/03/20 13:45:55;;;;;;;;;;;;;;;;;;5082962;28;19967;-84
2024/03/20 13:48:21;;;;;;;;;;;;;;;;;;5082289;28;19920;-83
2024/03/20 13:50:48;;;;;;;;;;;;;;;;;;5081265;28;19925;-84
2024/03/20 13:53:14;;;;;;;;;;;;;;;;;;5081551;28;19920;-83
2024/03/20 13:55:41;;;;;;;;;;;;;;;;;;5081116;28;19952;-83
2024/03/20 13:58:08;;;;;;;;;;;;;;;;;;5080908;28;19936;-83
2024/03/20 14:00:34;;;;;;;;;;;;;;;;;;5081426;28;20380;-84
2024/03/20 14:03:00;;;;;;;;;;;;;;;;;;5080817;28;19926;-84
2024/03/20 14:05:28;;;;;;;;;;;;;;;;;;5080411;28;19943;-83
2024/03/20 14:07:54;;;;;;;;;;;;;;;;;;5080558;28;19920;-83
2024/03/20 14:10:21;;;;;;;;;;;;;;;;;;5080880;28;19973;-81
2024/03/20 14:12:47;;;;;;;;;;;;;;;;;;5082222;28;20023;-82
2024/03/20 14:15:14;;;;;;;;;;;;;;;;;;5071914;28;19952;-84
2024/03/20 14:17:40;;;;;;;;;;;;;;;;;;5088799;28;19923;-84
2024/03/20 14:20:07;;;;;;;;;;;;;;;;;;5085206;28;19927;-82
2024/03/20 14:22:35;;;;;;;;;;;;;;;;;;5081645;28;19947;-86
2024/03/20 14:25:02;;;;;;;;;;;;;;;;;;5077262;28;19931;-82
2024/03/20 14:27:28;;;;;;;;;;;;;;;;;;5086292;28;19959;-82
2024/03/20 14:29:55;;;;;;;;;;;;;;;;;;5081935;28;20364;-82
2024/03/20 14:32:22;;;;;;;;;;;;;;;;;;5074913;28;19928;-83
2024/03/20 14:34:49;;;;;;;;;;;;;;;;;;5085335;28;19969;-81
2024/03/20 14:37:15;;;;;;;;;;;;;;;;;;5083362;28;19987;-84
2024/03/20 14:39:42;;;;;;;;;;;;;;;;;;5083832;28;19917;-83
2024/03/20 14:42:08;;;;;;;;;;;;;;;;;;5083668;28;19920;-79
2024/03/20 14:44:35;;;;;;;;;;;;;;;;;;5080298;28;19947;-85
2024/03/20 14:47:01;;;;;;;;;;;;;;;;;;5082928;28;19920;-85
2024/03/20 14:49:28;;;;;;;;;;;;;;;;;;5083629;28;19963;-85
2024/03/20 14:51:55;;;;;;;;;;;;;;;;;;5083675;28;19927;-83
2024/03/20 14:54:23;;;;;;;;;;;;;;;;;;5079090;28;19925;-81
2024/03/20 14:56:49;;;;;;;;;;;;;;;;;;5081388;28;19920;-82
2024/03/20 14:59:15;;;;;;;;;;;;;;;;;;5084515;28;19962;-85
2024/03/20 15:01:41;;;;;;;;;;;;;;;;;;5080738;28;19950;-85
2024/03/20 15:04:09;;;;;;;;;;;;;;;;;;5083105;28;19916;-83
2024/03/20 15:06:35;;;;;;;;;;;;;;;;;;5084437;28;19927;-84
2024/03/20 15:09:02;;;;;;;;;;;;;;;;;;5086066;28;19939;-85
2024/03/20 15:11:28;;;;;;;;;;;;;;;;;;5084926;28;20015;-85
2024/03/20 15:13:56;;;;;;;;;;;;;;;;;;5087195;28;19917;-85
2024/03/20 15:16:22;;;;;;;;;;;;;;;;;;5087185;28;19955;-83
2024/03/20 15:18:50;;;;;;;;;;;;;;;;;;5088610;28;19917;-84
2024/03/20 15:21:17;;;;;;;;;;;;;;;;;;5088534;28;20019;-85
2024/03/20 15:23:47;;;;;;;9.30;2.08;;;;;;;;;;5082651;28;19917;-83
2024/03/20 15:26:14;;;;;;;12.03;2.23;;;;;;;;;;5069917;28;20697;-82
2024/03/20 15:28:44;;;;;;;10.67;2.47;;;;;;;;;;5087978;28;20504;-84
2024/03/20 15:31:12;;;;;;;10.47;2.10;;;;;;;;;;5088934;28;20478;-84
2024/03/20 15:33:39;;;;;;;12.33;2.40;;;;;;;;;;5088645;28;20454;-84
2024/03/20 15:36:05;;;;;;;9.87;2.30;;;;;;;;;;5089144;28;20455;-86
2024/03/20 15:38:32;;;;;;;10.60;2.20;;;;;;;;;;5088108;28;20446;-85
2024/03/20 15:41:00;;;;;;;9.27;2.30;;;;;;;;;;5089294;28;20455;-84
2024/03/20 15:43:28;;;;;;;9.00;2.30;;;;;;;;;;5081883;28;20523;-84
2024/03/20 15:45:54;;;;;;;9.70;2.10;;;;;;;;;;5090011;28;20558;-86
2024/03/20 15:48:21;;;;;;;11.63;2.50;;;;;;;;;;5096869;28;20510;-84
2024/03/20 15:50:49;;;;;;;10.90;2.73;;;;;;;;;;5097712;28;20506;-83
2024/03/20 15:53:18;;;;;;;10.57;3.00;;;;;;;;;;5097126;28;20510;-83
2024/03/20 15:55:44;;;;;;;11.63;2.80;;;;;;;;;;5097348;28;20502;-81
2024/03/20 15:58:14;;;;;;;11.03;3.07;;;;;;;;;;5096653;28;20489;-82
2024/03/20 16:00:40;;;;;;;10.50;2.77;;;;;;;;;;5097878;28;20455;-84
2024/03/20 16:03:08;;;;;;;9.47;2.70;;;;;;;;;;5090634;28;20537;-83
2024/03/20 16:05:35;;;;;;;9.83;2.60;;;;;;;;;;5085928;28;20838;-82
2024/03/20 16:08:03;;;;;;;8.70;2.13;;;;;;;;;;5094895;28;20479;-83
2024/03/20 16:10:34;;;;;;;10.77;2.57;;;;;;;;;;5084620;28;20739;-83
2024/03/20 16:13:03;;;;;;;14.30;2.93;;;;;;;;;;5094747;28;20443;-84
2024/03/20 16:15:33;;;;;;;15.90;3.53;;;;;;;;;;5082212;28;20525;-83
2024/03/20 16:18:01;;;;;;;13.60;3.47;;;;;;;;;;5087848;28;20502;-84
2024/03/20 16:20:27;;;;;;;11.40;3.40;;;;;;;;;;5086987;28;20521;-86
2024/03/20 16:22:56;;;;;;;11.23;2.77;;;;;;;;;;5087523;28;20474;-85
2024/03/20 16:25:23;;;;;;;10.43;3.20;;;;;;;;;;5087204;28;20451;-85
2024/03/20 16:27:50;;;;;;;10.30;2.43;;;;;;;;;;5086444;28;20491;-85
2024/03/20 16:30:17;;;;;;;10.93;3.10;;;;;;;;;;5086383;28;20531;-84
2024/03/20 16:32:49;;;;;;;12.20;2.30;;;;;;;;;;5086279;28;20523;-83